sensor_id;sensor_type;location;lat;lon;timestamp;P1;durP1;ratioP1;P2;durP2;ratioP2
17890;SDS011;9071;48.220;14.480;2023-05-18T00:03:07;24.83;;;17.47;;
17890;SDS011;9071;48.220;14.480;2023-05-18T00:08:09;23.37;;;17.83;;
17890;SDS011;9071;48.220;14.480;2023-05-18T00:13:13;22.10;;;16.67;;
17890;SDS011;9071;48.220;14.480;2023-05-18T00:18:15;26.13;;;17.93;;
17890;SDS011;9071;48.220;14.480;2023-05-18T00:23:17;23.30;;;17.73;;
17890;SDS011;9071;48.220;14.480;2023-05-18T00:28:20;22.77;;;17.10;;
17890;SDS011;9071;48.220;14.480;2023-05-18T00:33:22;20.30;;;16.23;;
17890;SDS011;9071;48.220;14.480;2023-05-18T00:38:24;21.77;;;16.80;;
17890;SDS011;9071;48.220;14.480;2023-05-18T00:43:27;22.53;;;16.63;;
17890;SDS011;9071;48.220;14.480;2023-05-18T00:48:30;21.23;;;17.43;;
17890;SDS011;9071;48.220;14.480;2023-05-18T00:53:32;24.43;;;18.17;;
17890;SDS011;9071;48.220;14.480;2023-05-18T00:58:35;23.43;;;16.73;;
17890;SDS011;9071;48.220;14.480;2023-05-18T01:03:39;25.67;;;18.23;;
17890;SDS011;9071;48.220;14.480;2023-05-18T01:08:42;24.37;;;17.90;;
17890;SDS011;9071;48.220;14.480;2023-05-18T01:13:49;24.90;;;17.93;;
17890;SDS011;9071;48.220;14.480;2023-05-18T01:19:00;24.60;;;18.40;;
17890;SDS011;9071;48.220;14.480;2023-05-18T01:24:22;29.53;;;19.50;;
17890;SDS011;9071;48.220;14.480;2023-05-18T01:29:32;26.83;;;20.00;;
17890;SDS011;9071;48.220;14.480;2023-05-18T01:34:35;28.10;;;18.83;;
17890;SDS011;9071;48.220;14.480;2023-05-18T01:39:37;27.33;;;19.93;;
17890;SDS011;9071;48.220;14.480;2023-05-18T01:44:42;25.03;;;19.67;;
17890;SDS011;9071;48.220;14.480;2023-05-18T01:49:50;28.33;;;19.27;;
17890;SDS011;9071;48.220;14.480;2023-05-18T01:54:55;28.17;;;20.20;;
17890;SDS011;9071;48.220;14.480;2023-05-18T02:00:03;26.57;;;18.40;;
17890;SDS011;9071;48.220;14.480;2023-05-18T02:05:07;27.00;;;19.17;;
17890;SDS011;9071;48.220;14.480;2023-05-18T02:10:11;27.30;;;19.03;;
17890;SDS011;9071;48.220;14.480;2023-05-18T02:15:15;28.53;;;18.93;;
17890;SDS011;9071;48.220;14.480;2023-05-18T02:20:17;26.93;;;20.10;;
17890;SDS011;9071;48.220;14.480;2023-05-18T02:25:19;25.00;;;19.33;;
17890;SDS011;9071;48.220;14.480;2023-05-18T02:30:23;26.20;;;18.87;;
17890;SDS011;9071;48.220;14.480;2023-05-18T02:35:25;26.57;;;19.20;;
17890;SDS011;9071;48.220;14.480;2023-05-18T02:40:27;25.53;;;19.03;;
17890;SDS011;9071;48.220;14.480;2023-05-18T02:45:31;26.33;;;19.97;;
17890;SDS011;9071;48.220;14.480;2023-05-18T02:50:33;29.27;;;19.13;;
17890;SDS011;9071;48.220;14.480;2023-05-18T02:55:35;27.03;;;18.10;;
17890;SDS011;9071;48.220;14.480;2023-05-18T03:00:39;26.23;;;18.67;;
17890;SDS011;9071;48.220;14.480;2023-05-18T03:05:41;26.80;;;18.80;;
17890;SDS011;9071;48.220;14.480;2023-05-18T03:10:43;24.97;;;18.07;;
17890;SDS011;9071;48.220;14.480;2023-05-18T03:15:47;25.90;;;17.67;;
17890;SDS011;9071;48.220;14.480;2023-05-18T03:20:50;22.83;;;15.73;;
17890;SDS011;9071;48.220;14.480;2023-05-18T03:25:52;23.27;;;18.53;;
17890;SDS011;9071;48.220;14.480;2023-05-18T03:30:56;28.37;;;19.47;;
17890;SDS011;9071;48.220;14.480;2023-05-18T03:36:01;30.07;;;20.13;;
17890;SDS011;9071;48.220;14.480;2023-05-18T03:41:04;23.53;;;18.27;;
17890;SDS011;9071;48.220;14.480;2023-05-18T03:46:08;27.07;;;19.07;;
17890;SDS011;9071;48.220;14.480;2023-05-18T03:51:10;26.93;;;17.93;;
17890;SDS011;9071;48.220;14.480;2023-05-18T03:56:12;26.50;;;18.63;;
17890;SDS011;9071;48.220;14.480;2023-05-18T04:01:16;26.40;;;17.50;;
17890;SDS011;9071;48.220;14.480;2023-05-18T04:06:18;23.87;;;15.17;;
17890;SDS011;9071;48.220;14.480;2023-05-18T04:11:22;21.40;;;15.70;;
17890;SDS011;9071;48.220;14.480;2023-05-18T04:16:26;22.30;;;15.37;;
17890;SDS011;9071;48.220;14.480;2023-05-18T04:21:28;19.73;;;14.60;;
17890;SDS011;9071;48.220;14.480;2023-05-18T04:26:34;18.60;;;14.17;;
17890;SDS011;9071;48.220;14.480;2023-05-18T04:31:39;20.17;;;14.60;;
17890;SDS011;9071;48.220;14.480;2023-05-18T04:36:43;20.60;;;14.30;;
17890;SDS011;9071;48.220;14.480;2023-05-18T04:41:46;23.93;;;16.83;;
17890;SDS011;9071;48.220;14.480;2023-05-18T04:46:49;19.87;;;14.70;;
17890;SDS011;9071;48.220;14.480;2023-05-18T04:51:52;20.17;;;15.47;;
17890;SDS011;9071;48.220;14.480;2023-05-18T04:56:56;20.70;;;14.30;;
17890;SDS011;9071;48.220;14.480;2023-05-18T05:01:59;19.63;;;14.20;;
17890;SDS011;9071;48.220;14.480;2023-05-18T05:07:01;15.77;;;11.90;;
17890;SDS011;9071;48.220;14.480;2023-05-18T05:12:04;19.40;;;12.70;;
17890;SDS011;9071;48.220;14.480;2023-05-18T05:17:07;14.43;;;11.23;;
17890;SDS011;9071;48.220;14.480;2023-05-18T05:22:11;15.23;;;10.90;;
17890;SDS011;9071;48.220;14.480;2023-05-18T05:27:13;12.50;;;10.20;;
17890;SDS011;9071;48.220;14.480;2023-05-18T05:32:17;14.70;;;10.60;;
17890;SDS011;9071;48.220;14.480;2023-05-18T05:37:19;12.80;;;10.37;;
17890;SDS011;9071;48.220;14.480;2023-05-18T05:42:21;12.67;;;10.07;;
17890;SDS011;9071;48.220;14.480;2023-05-18T05:47:26;12.33;;;10.57;;
17890;SDS011;9071;48.220;14.480;2023-05-18T05:52:28;14.53;;;10.67;;
17890;SDS011;9071;48.220;14.480;2023-05-18T05:57:30;16.63;;;12.50;;
17890;SDS011;9071;48.220;14.480;2023-05-18T06:02:33;13.50;;;10.73;;
17890;SDS011;9071;48.220;14.480;2023-05-18T06:07:35;12.33;;;10.17;;
17890;SDS011;9071;48.220;14.480;2023-05-18T06:12:37;13.57;;;10.03;;
17890;SDS011;9071;48.220;14.480;2023-05-18T06:17:41;19.93;;;12.00;;
17890;SDS011;9071;48.220;14.480;2023-05-18T06:22:44;22.10;;;14.60;;
17890;SDS011;9071;48.220;14.480;2023-05-18T06:27:47;22.33;;;14.33;;
17890;SDS011;9071;48.220;14.480;2023-05-18T06:32:50;21.50;;;15.80;;
17890;SDS011;9071;48.220;14.480;2023-05-18T06:37:52;23.10;;;14.10;;
17890;SDS011;9071;48.220;14.480;2023-05-18T06:42:54;16.93;;;11.90;;
17890;SDS011;9071;48.220;14.480;2023-05-18T06:47:58;18.50;;;11.97;;
17890;SDS011;9071;48.220;14.480;2023-05-18T06:53:00;16.93;;;12.33;;
17890;SDS011;9071;48.220;14.480;2023-05-18T06:58:03;21.43;;;15.23;;
17890;SDS011;9071;48.220;14.480;2023-05-18T07:03:06;27.97;;;16.53;;
17890;SDS011;9071;48.220;14.480;2023-05-18T07:08:08;22.53;;;16.13;;
17890;SDS011;9071;48.220;14.480;2023-05-18T07:13:11;25.10;;;17.07;;
17890;SDS011;9071;48.220;14.480;2023-05-18T07:18:14;30.67;;;20.27;;
17890;SDS011;9071;48.220;14.480;2023-05-18T07:23:16;27.53;;;18.20;;
17890;SDS011;9071;48.220;14.480;2023-05-18T07:28:18;28.70;;;17.70;;
17890;SDS011;9071;48.220;14.480;2023-05-18T07:33:22;27.67;;;18.27;;
17890;SDS011;9071;48.220;14.480;2023-05-18T07:38:24;25.63;;;16.90;;
17890;SDS011;9071;48.220;14.480;2023-05-18T07:43:27;27.13;;;17.63;;
17890;SDS011;9071;48.220;14.480;2023-05-18T07:48:31;27.67;;;17.97;;
17890;SDS011;9071;48.220;14.480;2023-05-18T07:53:33;27.93;;;16.53;;
17890;SDS011;9071;48.220;14.480;2023-05-18T07:58:37;23.53;;;16.30;;
17890;SDS011;9071;48.220;14.480;2023-05-18T08:03:40;26.57;;;16.77;;
17890;SDS011;9071;48.220;14.480;2023-05-18T08:08:42;24.63;;;15.13;;
17890;SDS011;9071;48.220;14.480;2023-05-18T08:13:44;22.23;;;14.10;;
17890;SDS011;9071;48.220;14.480;2023-05-18T08:18:48;21.50;;;13.33;;
17890;SDS011;9071;48.220;14.480;2023-05-18T08:23:50;20.37;;;12.43;;
17890;SDS011;9071;48.220;14.480;2023-05-18T08:28:52;20.47;;;14.73;;
17890;SDS011;9071;48.220;14.480;2023-05-18T08:33:55;18.77;;;12.80;;
17890;SDS011;9071;48.220;14.480;2023-05-18T08:38:58;21.40;;;15.00;;
17890;SDS011;9071;48.220;14.480;2023-05-18T08:44:02;21.40;;;13.87;;
17890;SDS011;9071;48.220;14.480;2023-05-18T08:49:10;23.40;;;13.00;;
17890;SDS011;9071;48.220;14.480;2023-05-18T08:54:14;20.97;;;13.80;;
17890;SDS011;9071;48.220;14.480;2023-05-18T08:59:22;17.77;;;12.50;;
17890;SDS011;9071;48.220;14.480;2023-05-18T09:04:26;22.57;;;13.03;;
17890;SDS011;9071;48.220;14.480;2023-05-18T09:09:28;17.90;;;12.13;;
17890;SDS011;9071;48.220;14.480;2023-05-18T09:14:32;18.80;;;10.63;;
17890;SDS011;9071;48.220;14.480;2023-05-18T09:19:35;13.60;;;9.30;;
17890;SDS011;9071;48.220;14.480;2023-05-18T09:24:37;12.93;;;8.03;;
17890;SDS011;9071;48.220;14.480;2023-05-18T09:29:50;13.70;;;7.37;;
17890;SDS011;9071;48.220;14.480;2023-05-18T09:34:54;12.83;;;7.00;;
17890;SDS011;9071;48.220;14.480;2023-05-18T09:40:04;15.13;;;6.90;;
17890;SDS011;9071;48.220;14.480;2023-05-18T09:45:14;10.40;;;6.27;;
17890;SDS011;9071;48.220;14.480;2023-05-18T09:50:19;10.40;;;5.80;;
17890;SDS011;9071;48.220;14.480;2023-05-18T09:55:21;10.83;;;6.60;;
17890;SDS011;9071;48.220;14.480;2023-05-18T10:00:24;9.93;;;6.67;;
17890;SDS011;9071;48.220;14.480;2023-05-18T10:05:27;10.00;;;6.60;;
17890;SDS011;9071;48.220;14.480;2023-05-18T10:10:31;7.33;;;5.00;;
17890;SDS011;9071;48.220;14.480;2023-05-18T10:15:44;10.47;;;5.93;;
17890;SDS011;9071;48.220;14.480;2023-05-18T10:20:49;8.43;;;4.27;;
17890;SDS011;9071;48.220;14.480;2023-05-18T10:25:52;8.70;;;4.70;;
17890;SDS011;9071;48.220;14.480;2023-05-18T10:30:56;8.70;;;4.20;;
17890;SDS011;9071;48.220;14.480;2023-05-18T10:36:00;7.10;;;4.47;;
17890;SDS011;9071;48.220;14.480;2023-05-18T10:41:04;7.43;;;4.30;;
17890;SDS011;9071;48.220;14.480;2023-05-18T10:46:07;9.33;;;4.70;;
17890;SDS011;9071;48.220;14.480;2023-05-18T10:51:11;5.83;;;4.07;;
17890;SDS011;9071;48.220;14.480;2023-05-18T10:56:15;9.00;;;5.07;;
17890;SDS011;9071;48.220;14.480;2023-05-18T11:01:17;6.77;;;4.27;;
17890;SDS011;9071;48.220;14.480;2023-05-18T11:06:23;7.90;;;4.57;;
17890;SDS011;9071;48.220;14.480;2023-05-18T11:11:26;8.97;;;4.90;;
17890;SDS011;9071;48.220;14.480;2023-05-18T11:16:31;8.93;;;4.20;;
17890;SDS011;9071;48.220;14.480;2023-05-18T11:21:52;8.30;;;3.97;;
17890;SDS011;9071;48.220;14.480;2023-05-18T11:26:55;6.33;;;3.50;;
17890;SDS011;9071;48.220;14.480;2023-05-18T11:31:58;7.53;;;3.97;;
17890;SDS011;9071;48.220;14.480;2023-05-18T11:37:01;7.23;;;4.20;;
17890;SDS011;9071;48.220;14.480;2023-05-18T11:42:05;5.63;;;3.57;;
17890;SDS011;9071;48.220;14.480;2023-05-18T11:47:09;10.50;;;4.17;;
17890;SDS011;9071;48.220;14.480;2023-05-18T11:52:17;13.90;;;5.57;;
17890;SDS011;9071;48.220;14.480;2023-05-18T11:57:22;9.03;;;5.23;;
17890;SDS011;9071;48.220;14.480;2023-05-18T12:02:26;8.63;;;4.80;;
17890;SDS011;9071;48.220;14.480;2023-05-18T12:07:32;9.17;;;6.03;;
17890;SDS011;9071;48.220;14.480;2023-05-18T12:12:35;12.70;;;5.47;;
17890;SDS011;9071;48.220;14.480;2023-05-18T12:17:38;5.37;;;3.80;;
17890;SDS011;9071;48.220;14.480;2023-05-18T12:22:43;6.17;;;4.00;;
17890;SDS011;9071;48.220;14.480;2023-05-18T12:27:49;7.90;;;3.90;;
17890;SDS011;9071;48.220;14.480;2023-05-18T12:32:53;9.40;;;3.70;;
17890;SDS011;9071;48.220;14.480;2023-05-18T12:37:58;5.70;;;3.50;;
17890;SDS011;9071;48.220;14.480;2023-05-18T12:43:00;5.67;;;3.20;;
17890;SDS011;9071;48.220;14.480;2023-05-18T12:48:03;8.23;;;3.13;;
17890;SDS011;9071;48.220;14.480;2023-05-18T12:53:07;7.47;;;4.03;;
17890;SDS011;9071;48.220;14.480;2023-05-18T12:58:10;6.03;;;3.17;;
17890;SDS011;9071;48.220;14.480;2023-05-18T13:03:16;3.67;;;2.60;;
17890;SDS011;9071;48.220;14.480;2023-05-18T13:08:22;4.87;;;2.70;;
17890;SDS011;9071;48.220;14.480;2023-05-18T13:24:02;3.80;;;3.00;;
17890;SDS011;9071;48.220;14.480;2023-05-18T13:29:05;4.40;;;3.00;;
17890;SDS011;9071;48.220;14.480;2023-05-18T13:34:07;5.13;;;2.90;;
17890;SDS011;9071;48.220;14.480;2023-05-18T13:39:11;5.57;;;3.07;;
17890;SDS011;9071;48.220;14.480;2023-05-18T13:44:13;4.80;;;3.10;;
17890;SDS011;9071;48.220;14.480;2023-05-18T13:49:17;4.30;;;2.83;;
17890;SDS011;9071;48.220;14.480;2023-05-18T13:54:20;7.93;;;2.90;;
17890;SDS011;9071;48.220;14.480;2023-05-18T13:59:22;4.13;;;2.53;;
17890;SDS011;9071;48.220;14.480;2023-05-18T14:04:24;3.53;;;2.20;;
17890;SDS011;9071;48.220;14.480;2023-05-18T14:09:27;5.93;;;4.80;;
17890;SDS011;9071;48.220;14.480;2023-05-18T14:14:29;6.30;;;4.40;;
17890;SDS011;9071;48.220;14.480;2023-05-18T14:19:31;4.30;;;2.60;;
17890;SDS011;9071;48.220;14.480;2023-05-18T14:24:34;3.67;;;2.73;;
17890;SDS011;9071;48.220;14.480;2023-05-18T14:29:36;4.23;;;2.53;;
17890;SDS011;9071;48.220;14.480;2023-05-18T14:34:38;2.70;;;2.40;;
17890;SDS011;9071;48.220;14.480;2023-05-18T14:39:42;4.23;;;2.00;;
17890;SDS011;9071;48.220;14.480;2023-05-18T14:44:44;3.17;;;2.17;;
17890;SDS011;9071;48.220;14.480;2023-05-18T14:49:46;3.63;;;2.33;;
17890;SDS011;9071;48.220;14.480;2023-05-18T14:54:49;4.47;;;3.40;;
17890;SDS011;9071;48.220;14.480;2023-05-18T14:59:51;6.07;;;2.53;;
17890;SDS011;9071;48.220;14.480;2023-05-18T15:04:53;1.70;;;1.50;;
17890;SDS011;9071;48.220;14.480;2023-05-18T15:09:56;3.00;;;2.03;;
17890;SDS011;9071;48.220;14.480;2023-05-18T15:14:58;5.60;;;2.30;;
17890;SDS011;9071;48.220;14.480;2023-05-18T15:20:01;4.37;;;1.80;;
17890;SDS011;9071;48.220;14.480;2023-05-18T15:25:05;7.17;;;2.47;;
17890;SDS011;9071;48.220;14.480;2023-05-18T15:30:08;11.70;;;3.50;;
17890;SDS011;9071;48.220;14.480;2023-05-18T15:35:11;4.30;;;2.80;;
17890;SDS011;9071;48.220;14.480;2023-05-18T15:40:16;4.10;;;2.50;;
17890;SDS011;9071;48.220;14.480;2023-05-18T15:45:18;10.17;;;3.43;;
17890;SDS011;9071;48.220;14.480;2023-05-18T15:50:20;5.57;;;3.00;;
17890;SDS011;9071;48.220;14.480;2023-05-18T15:55:24;5.37;;;2.70;;
17890;SDS011;9071;48.220;14.480;2023-05-18T16:00:26;3.90;;;2.80;;
17890;SDS011;9071;48.220;14.480;2023-05-18T16:05:28;5.63;;;2.77;;
17890;SDS011;9071;48.220;14.480;2023-05-18T16:10:31;5.57;;;2.93;;
17890;SDS011;9071;48.220;14.480;2023-05-18T16:15:33;7.90;;;3.17;;
17890;SDS011;9071;48.220;14.480;2023-05-18T16:20:36;5.73;;;3.60;;
17890;SDS011;9071;48.220;14.480;2023-05-18T16:25:39;6.20;;;3.10;;
17890;SDS011;9071;48.220;14.480;2023-05-18T16:30:42;5.90;;;3.67;;
17890;SDS011;9071;48.220;14.480;2023-05-18T16:35:44;6.90;;;3.43;;
17890;SDS011;9071;48.220;14.480;2023-05-18T16:40:48;8.37;;;3.40;;
17890;SDS011;9071;48.220;14.480;2023-05-18T16:45:50;7.37;;;3.70;;
17890;SDS011;9071;48.220;14.480;2023-05-18T16:50:52;10.50;;;4.20;;
17890;SDS011;9071;48.220;14.480;2023-05-18T16:55:56;6.53;;;3.73;;
17890;SDS011;9071;48.220;14.480;2023-05-18T17:00:58;6.47;;;3.80;;
17890;SDS011;9071;48.220;14.480;2023-05-18T17:06:00;9.23;;;3.97;;
17890;SDS011;9071;48.220;14.480;2023-05-18T17:11:04;9.00;;;4.43;;
17890;SDS011;9071;48.220;14.480;2023-05-18T17:16:06;9.63;;;4.70;;
17890;SDS011;9071;48.220;14.480;2023-05-18T17:21:08;8.67;;;4.00;;
17890;SDS011;9071;48.220;14.480;2023-05-18T17:26:11;8.47;;;4.67;;
17890;SDS011;9071;48.220;14.480;2023-05-18T17:31:13;7.87;;;3.97;;
17890;SDS011;9071;48.220;14.480;2023-05-18T17:36:16;10.83;;;4.17;;
17890;SDS011;9071;48.220;14.480;2023-05-18T17:41:20;9.87;;;4.03;;
17890;SDS011;9071;48.220;14.480;2023-05-18T17:46:22;8.07;;;3.73;;
17890;SDS011;9071;48.220;14.480;2023-05-18T17:51:24;7.73;;;3.53;;
17890;SDS011;9071;48.220;14.480;2023-05-18T17:56:27;10.27;;;4.60;;
17890;SDS011;9071;48.220;14.480;2023-05-18T18:01:30;10.37;;;4.43;;
17890;SDS011;9071;48.220;14.480;2023-05-18T18:06:33;6.80;;;4.07;;
17890;SDS011;9071;48.220;14.480;2023-05-18T18:11:37;10.87;;;4.77;;
17890;SDS011;9071;48.220;14.480;2023-05-18T18:16:39;9.33;;;4.77;;
17890;SDS011;9071;48.220;14.480;2023-05-18T18:21:41;10.87;;;4.93;;
17890;SDS011;9071;48.220;14.480;2023-05-18T18:26:44;8.83;;;4.70;;
17890;SDS011;9071;48.220;14.480;2023-05-18T18:31:48;12.20;;;5.53;;
17890;SDS011;9071;48.220;14.480;2023-05-18T18:36:50;11.07;;;5.10;;
17890;SDS011;9071;48.220;14.480;2023-05-18T18:41:54;9.23;;;5.07;;
17890;SDS011;9071;48.220;14.480;2023-05-18T18:46:56;13.20;;;6.07;;
17890;SDS011;9071;48.220;14.480;2023-05-18T18:51:58;10.17;;;5.43;;
17890;SDS011;9071;48.220;14.480;2023-05-18T18:57:01;8.03;;;5.20;;
17890;SDS011;9071;48.220;14.480;2023-05-18T19:02:03;9.10;;;5.07;;
17890;SDS011;9071;48.220;14.480;2023-05-18T19:07:05;8.40;;;4.83;;
17890;SDS011;9071;48.220;14.480;2023-05-18T19:12:09;12.27;;;5.60;;
17890;SDS011;9071;48.220;14.480;2023-05-18T19:17:11;13.97;;;6.23;;
17890;SDS011;9071;48.220;14.480;2023-05-18T19:22:13;10.07;;;6.23;;
17890;SDS011;9071;48.220;14.480;2023-05-18T19:27:17;9.27;;;5.37;;
17890;SDS011;9071;48.220;14.480;2023-05-18T19:32:19;10.87;;;5.60;;
17890;SDS011;9071;48.220;14.480;2023-05-18T19:37:21;9.60;;;5.47;;
17890;SDS011;9071;48.220;14.480;2023-05-18T19:42:24;9.10;;;5.27;;
17890;SDS011;9071;48.220;14.480;2023-05-18T19:47:26;11.87;;;5.10;;
17890;SDS011;9071;48.220;14.480;2023-05-18T19:52:28;12.43;;;6.13;;
17890;SDS011;9071;48.220;14.480;2023-05-18T19:57:32;10.93;;;5.33;;
17890;SDS011;9071;48.220;14.480;2023-05-18T20:02:35;9.13;;;5.57;;
17890;SDS011;9071;48.220;14.480;2023-05-18T20:07:37;8.17;;;5.33;;
17890;SDS011;9071;48.220;14.480;2023-05-18T20:12:40;11.10;;;5.97;;
17890;SDS011;9071;48.220;14.480;2023-05-18T20:17:42;8.33;;;5.27;;
17890;SDS011;9071;48.220;14.480;2023-05-18T20:22:44;11.40;;;5.70;;
17890;SDS011;9071;48.220;14.480;2023-05-18T20:27:48;11.37;;;5.73;;
17890;SDS011;9071;48.220;14.480;2023-05-18T20:32:50;12.97;;;5.97;;
17890;SDS011;9071;48.220;14.480;2023-05-18T20:37:52;14.37;;;5.67;;
17890;SDS011;9071;48.220;14.480;2023-05-18T20:43:00;9.73;;;5.93;;
17890;SDS011;9071;48.220;14.480;2023-05-18T20:48:04;8.93;;;5.80;;
17890;SDS011;9071;48.220;14.480;2023-05-18T20:53:06;11.27;;;6.50;;
17890;SDS011;9071;48.220;14.480;2023-05-18T20:58:10;11.67;;;6.50;;
17890;SDS011;9071;48.220;14.480;2023-05-18T21:03:12;12.17;;;6.37;;
17890;SDS011;9071;48.220;14.480;2023-05-18T21:08:14;13.60;;;6.30;;
17890;SDS011;9071;48.220;14.480;2023-05-18T21:13:17;9.03;;;6.27;;
17890;SDS011;9071;48.220;14.480;2023-05-18T21:18:19;12.40;;;6.60;;
17890;SDS011;9071;48.220;14.480;2023-05-18T21:23:21;15.17;;;7.47;;
17890;SDS011;9071;48.220;14.480;2023-05-18T21:28:25;10.57;;;6.77;;
17890;SDS011;9071;48.220;14.480;2023-05-18T21:33:27;12.53;;;7.00;;
17890;SDS011;9071;48.220;14.480;2023-05-18T21:38:29;14.07;;;6.80;;
17890;SDS011;9071;48.220;14.480;2023-05-18T21:43:32;11.53;;;6.87;;
17890;SDS011;9071;48.220;14.480;2023-05-18T21:48:34;12.53;;;7.20;;
17890;SDS011;9071;48.220;14.480;2023-05-18T21:53:36;12.27;;;7.07;;
17890;SDS011;9071;48.220;14.480;2023-05-18T21:58:40;12.67;;;7.17;;
17890;SDS011;9071;48.220;14.480;2023-05-18T22:03:42;12.50;;;7.07;;
17890;SDS011;9071;48.220;14.480;2023-05-18T22:08:44;13.93;;;7.43;;
17890;SDS011;9071;48.220;14.480;2023-05-18T22:13:48;12.77;;;7.30;;
17890;SDS011;9071;48.220;14.480;2023-05-18T22:18:50;10.10;;;7.23;;
17890;SDS011;9071;48.220;14.480;2023-05-18T22:23:52;11.63;;;7.00;;
17890;SDS011;9071;48.220;14.480;2023-05-18T22:28:55;15.63;;;6.63;;
17890;SDS011;9071;48.220;14.480;2023-05-18T22:33:57;11.13;;;6.43;;
17890;SDS011;9071;48.220;14.480;2023-05-18T22:38:59;12.80;;;7.10;;
17890;SDS011;9071;48.220;14.480;2023-05-18T22:44:02;16.40;;;6.90;;
17890;SDS011;9071;48.220;14.480;2023-05-18T22:49:05;10.00;;;6.07;;
17890;SDS011;9071;48.220;14.480;2023-05-18T22:54:07;11.87;;;6.83;;
17890;SDS011;9071;48.220;14.480;2023-05-18T22:59:10;12.30;;;6.70;;
17890;SDS011;9071;48.220;14.480;2023-05-18T23:04:12;10.60;;;7.47;;
17890;SDS011;9071;48.220;14.480;2023-05-18T23:09:18;11.60;;;7.00;;
17890;SDS011;9071;48.220;14.480;2023-05-18T23:14:22;12.43;;;7.37;;
17890;SDS011;9071;48.220;14.480;2023-05-18T23:19:24;14.13;;;7.77;;
17890;SDS011;9071;48.220;14.480;2023-05-18T23:24:26;12.07;;;7.53;;
17890;SDS011;9071;48.220;14.480;2023-05-18T23:29:30;12.77;;;6.87;;
17890;SDS011;9071;48.220;14.480;2023-05-18T23:34:32;13.13;;;7.50;;
17890;SDS011;9071;48.220;14.480;2023-05-18T23:39:36;15.10;;;7.00;;
17890;SDS011;9071;48.220;14.480;2023-05-18T23:44:41;11.13;;;6.37;;
17890;SDS011;9071;48.220;14.480;2023-05-18T23:49:46;14.60;;;7.07;;
17890;SDS011;9071;48.220;14.480;2023-05-18T23:54:49;13.10;;;6.87;;
17890;SDS011;9071;48.220;14.480;2023-05-18T23:59:56;13.43;;;7.30;;
